Time,TemperatureF,DewpointF,PressureIn,WindDirection,WindDirectionDegrees,WindSpeedMPH,WindSpeedGustMPH,Humidity,HourlyPrecipIn,Conditions,Clouds,dailyrainin,SoftwareType,DateUTC
2013-10-07 00:13:00,57.2,55.0,29.90,SW,232,0.0,5.0,91,0.15,,,0.01,weatherlink.com 1.10,2013-10-07 04:13:00,
2013-10-07 00:28:00,56.7,55.0,29.89,North,356,1.0,4.0,93,0.15,,,0.01,weatherlink.com 1.10,2013-10-07 04:28:00,
2013-10-07 00:43:00,56.4,54.0,29.90,East,82,0.0,9.0,91,0.08,,,0.01,weatherlink.com 1.10,2013-10-07 04:43:00,
2013-10-07 00:58:00,56.2,54.0,29.90,NE,42,4.0,6.0,91,0.01,,,0.01,weatherlink.com 1.10,2013-10-07 04:58:00,
2013-10-07 01:13:00,56.2,54.0,29.89,NNE,18,0.0,2.0,91,0.00,,,0.01,weatherlink.com 1.10,2013-10-07 05:13:00,
2013-10-07 01:28:00,56.1,54.0,29.90,East,92,2.0,5.0,93,0.00,,,0.01,weatherlink.com 1.10,2013-10-07 05:28:00,
2013-10-07 01:43:00,56.2,54.0,29.90,West,269,0.0,1.0,93,0.00,,,0.01,weatherlink.com 1.10,2013-10-07 05:43:00,
2013-10-07 01:58:00,56.3,54.0,29.90,NNW,339,0.0,5.0,91,0.00,,,0.01,weatherlink.com 1.10,2013-10-07 05:58:00,
2013-10-07 02:13:00,56.7,54.0,29.91,ENE,72,0.0,2.0,91,0.00,,,0.01,weatherlink.com 1.10,2013-10-07 06:13:00,
2013-10-07 02:29:00,56.7,54.0,29.91,ESE,104,0.0,1.0,90,0.00,,,0.01,weatherlink.com 1.10,2013-10-07 06:29:00,
2013-10-07 02:44:00,56.7,55.0,29.92,ESE,105,0.0,0.0,93,0.00,,,0.01,weatherlink.com 1.10,2013-10-07 06:44:00,
2013-10-07 02:59:00,56.4,54.0,29.92,ESE,105,0.0,0.0,92,0.00,,,0.01,weatherlink.com 1.10,2013-10-07 06:59:00,
2013-10-07 03:14:00,56.3,54.0,29.92,East,99,0.0,0.0,92,0.00,,,0.01,weatherlink.com 1.10,2013-10-07 07:14:00,
2013-10-07 03:29:00,56.4,54.0,29.91,ESE,108,0.0,1.0,92,0.00,,,0.01,weatherlink.com 1.10,2013-10-07 07:29:00,
2013-10-07 03:44:00,56.4,54.0,29.91,ESE,108,0.0,1.0,92,0.00,,,0.01,weatherlink.com 1.10,2013-10-07 07:44:00,
2013-10-07 03:59:00,56.5,54.0,29.90,ESE,108,0.0,0.0,92,0.00,,,0.01,weatherlink.com 1.10,2013-10-07 07:59:00,
2013-10-07 04:14:00,56.5,54.0,29.91,ESE,108,0.0,1.0,92,0.00,,,0.01,weatherlink.com 1.10,2013-10-07 08:14:00,
2013-10-07 04:29:00,56.6,55.0,29.91,ESE,108,0.0,1.0,93,0.00,,,0.01,weatherlink.com 1.10,2013-10-07 08:29:00,
2013-10-07 04:44:00,56.6,55.0,29.91,ESE,108,0.0,1.0,93,0.00,,,0.01,weatherlink.com 1.10,2013-10-07 08:44:00,
2013-10-07 05:00:00,56.7,55.0,29.91,ESE,108,0.0,0.0,93,0.00,,,0.01,weatherlink.com 1.10,2013-10-07 09:00:00,
2013-10-07 05:14:00,56.6,55.0,29.92,ESE,108,0.0,0.0,94,0.00,,,0.01,weatherlink.com 1.10,2013-10-07 09:14:00,
2013-10-07 05:29:00,56.3,55.0,29.92,ESE,108,0.0,0.0,94,0.00,,,0.01,weatherlink.com 1.10,2013-10-07 09:29:00,
2013-10-07 05:44:00,56.0,55.0,29.93,ESE,108,0.0,0.0,95,0.00,,,0.01,weatherlink.com 1.10,2013-10-07 09:44:00,
2013-10-07 05:59:00,55.7,54.0,29.93,ESE,108,0.0,0.0,95,0.00,,,0.01,weatherlink.com 1.10,2013-10-07 09:59:00,
2013-10-07 06:14:00,55.7,55.0,29.93,ESE,108,0.0,0.0,96,0.00,,,0.01,weatherlink.com 1.10,2013-10-07 10:14:00,
2013-10-07 06:29:00,55.3,54.0,29.93,ESE,108,0.0,0.0,96,0.00,,,0.01,weatherlink.com 1.10,2013-10-07 10:29:00,
2013-10-07 06:44:00,54.9,54.0,29.93,ESE,108,0.0,0.0,96,0.00,,,0.01,weatherlink.com 1.10,2013-10-07 10:44:00,
2013-10-07 06:59:00,54.3,53.0,29.94,ESE,108,0.0,0.0,96,0.00,,,0.01,weatherlink.com 1.10,2013-10-07 10:59:00,
2013-10-07 07:14:00,53.8,53.0,29.93,ESE,108,0.0,0.0,97,0.00,,,0.01,weatherlink.com 1.10,2013-10-07 11:14:00,
2013-10-07 07:29:00,53.4,53.0,29.93,ESE,108,0.0,0.0,97,0.00,,,0.01,weatherlink.com 1.10,2013-10-07 11:29:00,
2013-10-07 07:44:00,53.0,52.0,29.93,ESE,108,0.0,0.0,97,0.00,,,0.01,weatherlink.com 1.10,2013-10-07 11:44:00,
2013-10-07 07:59:00,52.9,52.0,29.94,ESE,108,0.0,0.0,97,0.00,,,0.01,weatherlink.com 1.10,2013-10-07 11:59:00,
2013-10-07 08:14:00,52.9,52.0,29.95,ESE,108,0.0,0.0,98,0.00,,,0.01,weatherlink.com 1.10,2013-10-07 12:14:00,
2013-10-07 08:29:00,52.9,52.0,29.96,ESE,108,0.0,0.0,98,0.00,,,0.01,weatherlink.com 1.10,2013-10-07 12:29:00,
2013-10-07 08:45:00,53.2,53.0,29.96,ESE,108,0.0,0.0,98,0.00,,,0.01,weatherlink.com 1.10,2013-10-07 12:45:00,
2013-10-07 08:59:00,53.4,53.0,29.97,East,90,0.0,1.0,98,0.00,,,0.01,weatherlink.com 1.10,2013-10-07 12:59:00,
2013-10-07 09:14:00,53.8,53.0,29.98,ENE,73,0.0,1.0,96,0.00,,,0.01,weatherlink.com 1.10,2013-10-07 13:14:00,
2013-10-07 09:29:00,55.1,53.0,29.98,ESE,105,0.0,5.0,91,0.00,,,0.01,weatherlink.com 1.10,2013-10-07 13:29:00,
2013-10-07 09:44:00,56.4,53.0,29.98,North,355,2.0,6.0,87,0.00,,,0.01,weatherlink.com 1.10,2013-10-07 13:44:00,
2013-10-07 09:59:00,57.3,53.0,29.99,ENE,62,4.0,4.0,84,0.00,,,0.01,weatherlink.com 1.10,2013-10-07 13:59:00,
2013-10-07 10:14:00,58.0,52.0,29.99,SSE,150,2.0,6.0,81,0.00,,,0.01,weatherlink.com 1.10,2013-10-07 14:14:00,
2013-10-07 10:29:00,59.1,52.0,30.00,North,3,0.0,7.0,78,0.00,,,0.01,weatherlink.com 1.10,2013-10-07 14:29:00,
2013-10-07 10:44:00,60.0,51.0,30.00,NE,46,1.0,7.0,73,0.00,,,0.01,weatherlink.com 1.10,2013-10-07 14:44:00,
2013-10-07 10:59:00,61.1,52.0,30.00,WNW,282,1.0,4.0,72,0.00,,,0.01,weatherlink.com 1.10,2013-10-07 14:59:00,
2013-10-07 11:14:00,62.4,52.0,29.99,NNE,13,1.0,6.0,69,0.00,,,0.01,weatherlink.com 1.10,2013-10-07 15:14:00,
2013-10-07 11:30:00,63.0,51.0,29.99,West,278,1.0,5.0,65,0.00,,,0.01,weatherlink.com 1.10,2013-10-07 15:30:00,
2013-10-07 11:45:00,62.9,50.0,29.99,NW,312,0.0,7.0,62,0.00,,,0.01,weatherlink.com 1.10,2013-10-07 15:45:00,
2013-10-07 12:00:00,63.5,50.0,29.99,WNW,303,3.0,4.0,61,0.00,,,0.01,weatherlink.com 1.10,2013-10-07 16:00:00,
2013-10-07 12:15:00,64.2,48.0,30.00,SSE,155,0.0,7.0,55,0.00,,,0.01,weatherlink.com 1.10,2013-10-07 16:15:00,
2013-10-07 12:30:00,64.7,47.0,30.00,WNW,296,1.0,3.0,54,0.00,,,0.01,weatherlink.com 1.10,2013-10-07 16:30:00,
2013-10-07 12:45:00,65.1,48.0,29.99,East,85,2.0,3.0,54,0.00,,,0.01,weatherlink.com 1.10,2013-10-07 16:45:00,
2013-10-07 13:00:00,66.4,49.0,29.98,NNE,19,2.0,4.0,54,0.00,,,0.01,weatherlink.com 1.10,2013-10-07 17:00:00,
2013-10-07 13:15:00,66.4,50.0,29.98,NNW,343,5.0,5.0,56,0.00,,,0.01,weatherlink.com 1.10,2013-10-07 17:15:00,
2013-10-07 13:32:00,67.0,52.0,29.98,SE,141,0.0,7.0,58,0.00,,,0.01,weatherlink.com 1.10,2013-10-07 17:32:00,
2013-10-07 13:45:00,67.7,51.0,29.98,NE,39,1.0,3.0,56,0.00,,,0.01,weatherlink.com 1.10,2013-10-07 17:45:00,
2013-10-07 14:00:00,68.0,52.0,29.97,NW,309,0.0,4.0,56,0.00,,,0.01,weatherlink.com 1.10,2013-10-07 18:00:00,
2013-10-07 14:15:00,68.4,52.0,29.97,WNW,301,0.0,5.0,56,0.00,,,0.01,weatherlink.com 1.10,2013-10-07 18:15:00,
2013-10-07 14:30:00,69.2,52.0,29.96,NW,319,0.0,3.0,54,0.00,,,0.01,weatherlink.com 1.10,2013-10-07 18:30:00,
2013-10-07 14:45:00,69.7,51.0,29.96,West,267,1.0,4.0,51,0.00,,,0.01,weatherlink.com 1.10,2013-10-07 18:45:00,
2013-10-07 15:00:00,69.7,51.0,29.96,NW,324,2.0,5.0,51,0.00,,,0.01,weatherlink.com 1.10,2013-10-07 19:00:00,
2013-10-07 15:15:00,69.6,52.0,29.96,WNW,293,1.0,3.0,53,0.00,,,0.01,weatherlink.com 1.10,2013-10-07 19:15:00,
2013-10-07 15:30:00,69.7,53.0,29.96,WNW,294,1.0,4.0,55,0.00,,,0.01,weatherlink.com 1.10,2013-10-07 19:30:00,
2013-10-07 15:45:00,69.8,50.0,29.96,NW,322,1.0,4.0,50,0.00,,,0.01,weatherlink.com 1.10,2013-10-07 19:45:00,
2013-10-07 16:00:00,70.2,52.0,29.96,West,276,1.0,3.0,52,0.00,,,0.01,weatherlink.com 1.10,2013-10-07 20:00:00,
2013-10-07 16:30:00,70.8,52.0,29.96,NW,304,0.0,2.0,51,0.00,,,0.01,weatherlink.com 1.10,2013-10-07 20:30:00,
2013-10-07 16:45:00,71.0,52.0,29.96,WNW,288,4.0,6.0,51,0.00,,,0.01,weatherlink.com 1.10,2013-10-07 20:45:00,
2013-10-07 17:00:00,70.5,51.0,29.96,ESE,121,0.0,5.0,50,0.00,,,0.01,weatherlink.com 1.10,2013-10-07 21:00:00,
2013-10-07 17:17:00,70.1,50.0,29.96,North,11,0.0,4.0,50,0.00,,,0.01,weatherlink.com 1.10,2013-10-07 21:17:00,
2013-10-07 17:30:00,68.9,52.0,29.97,WNW,302,0.0,1.0,55,0.00,,,0.01,weatherlink.com 1.10,2013-10-07 21:30:00,
2013-10-07 17:45:00,68.0,51.0,29.97,NNW,342,0.0,3.0,54,0.00,,,0.01,weatherlink.com 1.10,2013-10-07 21:45:00,
2013-10-07 18:00:00,66.6,51.0,29.97,North,1,0.0,5.0,58,0.00,,,0.01,weatherlink.com 1.10,2013-10-07 22:00:00,
2013-10-07 18:15:00,65.8,52.0,29.98,SSE,158,0.0,1.0,62,0.00,,,0.01,weatherlink.com 1.10,2013-10-07 22:15:00,
2013-10-07 18:30:00,64.7,53.0,29.98,North,2,0.0,2.0,65,0.00,,,0.01,weatherlink.com 1.10,2013-10-07 22:30:00,
2013-10-07 18:45:00,63.8,52.0,29.98,SE,127,0.0,1.0,66,0.00,,,0.01,weatherlink.com 1.10,2013-10-07 22:45:00,
2013-10-07 19:00:00,62.6,52.0,29.98,SE,127,0.0,1.0,69,0.00,,,0.01,weatherlink.com 1.10,2013-10-07 23:00:00,
2013-10-07 19:15:00,61.4,52.0,29.99,NE,51,0.0,1.0,72,0.00,,,0.01,weatherlink.com 1.10,2013-10-07 23:15:00,
2013-10-07 19:30:00,60.2,52.0,29.99,East,98,0.0,1.0,74,0.00,,,0.01,weatherlink.com 1.10,2013-10-07 23:30:00,
2013-10-07 19:45:00,59.2,52.0,30.00,East,98,0.0,1.0,76,0.00,,,0.01,weatherlink.com 1.10,2013-10-07 23:45:00,
2013-10-07 20:00:00,58.8,51.0,30.00,ESE,122,0.0,1.0,76,0.00,,,0.01,weatherlink.com 1.10,2013-10-08 00:00:00,
2013-10-07 20:15:00,58.8,51.0,30.01,NE,49,0.0,1.0,76,0.00,,,0.01,weatherlink.com 1.10,2013-10-08 00:15:00,
2013-10-07 20:30:00,58.4,51.0,30.01,WSW,247,0.0,1.0,77,0.00,,,0.01,weatherlink.com 1.10,2013-10-08 00:30:00,
2013-10-07 20:45:00,57.9,51.0,30.02,SW,217,0.0,1.0,78,0.00,,,0.01,weatherlink.com 1.10,2013-10-08 00:45:00,
2013-10-07 21:00:00,57.8,51.0,30.02,SW,226,0.0,1.0,77,0.00,,,0.01,weatherlink.com 1.10,2013-10-08 01:00:00,
2013-10-07 21:15:00,57.8,51.0,30.03,ESE,103,0.0,1.0,77,0.00,,,0.01,weatherlink.com 1.10,2013-10-08 01:15:00,
2013-10-07 21:30:00,57.7,51.0,30.04,ENE,65,0.0,1.0,78,0.00,,,0.01,weatherlink.com 1.10,2013-10-08 01:30:00,
2013-10-07 21:46:00,57.2,50.0,30.04,North,10,0.0,1.0,78,0.00,,,0.01,weatherlink.com 1.10,2013-10-08 01:46:00,
2013-10-07 22:01:00,56.7,51.0,30.05,WSW,257,0.0,1.0,80,0.00,,,0.01,weatherlink.com 1.10,2013-10-08 02:01:00,
2013-10-07 22:16:00,56.2,50.0,30.05,WSW,257,0.0,1.0,80,0.00,,,0.01,weatherlink.com 1.10,2013-10-08 02:16:00,
2013-10-07 22:31:00,55.8,50.0,30.06,NE,51,0.0,1.0,81,0.00,,,0.01,weatherlink.com 1.10,2013-10-08 02:31:00,
2013-10-07 22:46:00,55.6,50.0,30.06,NW,321,0.0,0.0,82,0.00,,,0.01,weatherlink.com 1.10,2013-10-08 02:46:00,
2013-10-07 23:01:00,55.3,50.0,30.06,WSW,256,0.0,1.0,82,0.00,,,0.01,weatherlink.com 1.10,2013-10-08 03:01:00,
2013-10-07 23:16:00,55.0,50.0,30.06,West,259,0.0,1.0,83,0.00,,,0.01,weatherlink.com 1.10,2013-10-08 03:16:00,
2013-10-07 23:31:00,54.9,50.0,30.06,West,264,0.0,1.0,82,0.00,,,0.01,weatherlink.com 1.10,2013-10-08 03:31:00,
2013-10-07 23:46:00,54.9,50.0,30.07,West,271,0.0,1.0,82,0.00,,,0.01,weatherlink.com 1.10,2013-10-08 03:46:00,